Aurora — V7BS9 — position and weather

sailwx.info

Track history (hours):
 
Tides and Currents Weather Stations Pressure Air Temp Water Temp Dewpoint Dewpoint Depression Visibility Wind Speed Wind Dir Waves Ship Positions

Aurora

Last reported at 2016-Nov-05 12:33 UTC. Time now 2016-Dec-03 02:27 UTC.
Position N 34°27' W 076°38'.
Warning: this ship's position is 27 days out of date.

Length 170 m; draft 6.7 m.

Type: Tanker. MMSI: 538001356.

Date/timePositionNaut miles runAvg speedWind from/ knotsBaromVisibWave heightAir tempDewpointWater temp
2016-Nov-05 12:33N 34°27' W 076°38'9 9.1
2016-Nov-05 11:34N 34°36' W 076°40'8 7.7
2016-Nov-05 10:33N 34°43' W 076°42'0 0.0
2016-Nov-05 09:32N 34°43' W 076°42'0 0.0
2016-Nov-05 08:32N 34°43' W 076°42'0 0.0
2016-Nov-05 07:32N 34°43' W 076°42'0 0.0
2016-Nov-05 04:29N 34°43' W 076°42'0 0.0
2016-Nov-05 02:32N 34°43' W 076°42'0 0.0
2016-Nov-05 01:32N 34°43' W 076°42'0 0.0
2016-Nov-04 23:32N 34°43' W 076°42'0 0.0
2016-Nov-04 22:32N 34°43' W 076°42'0 0.0
2016-Nov-04 21:32N 34°43' W 076°42'0 0.0
2016-Nov-04 20:32N 34°43' W 076°42'0 0.0
2016-Nov-04 18:33N 34°43' W 076°42'2 1.2
2016-Nov-04 16:34N 34°41' W 076°40'4 1.8
2016-Nov-04 14:31N 34°38' W 076°40'  
2016-Oct-28 23:31N 34°38' W 076°40'0 0.0
2016-Oct-28 21:31N 34°38' W 076°40'0 0.0
2016-Oct-28 19:33N 34°38' W 076°40'0 0.1
2016-Oct-28 16:32N 34°38' W 076°40'0 0.0
2016-Oct-28 15:32N 34°38' W 076°40'0 0.0
2016-Oct-28 14:32N 34°38' W 076°40'0 0.0
2016-Oct-28 09:33N 34°38' W 076°40'0 0.0
2016-Oct-28 08:32N 34°38' W 076°40'0 0.0
2016-Oct-28 07:32N 34°38' W 076°40'0 0.0
2016-Oct-28 00:32N 34°38' W 076°40'0 0.0
2016-Oct-27 23:32N 34°38' W 076°40'0 0.0
2016-Oct-27 21:33N 34°38' W 076°40'0 0.0
2016-Oct-27 11:32N 34°38' W 076°40'0 0.0
2016-Oct-27 09:33N 34°38' W 076°40'0 0.0
2016-Oct-27 04:32N 34°38' W 076°40'0 0.0
2016-Oct-27 03:32N 34°38' W 076°40'0 0.0
2016-Oct-27 00:33N 34°38' W 076°40'0 0.0
2016-Oct-26 21:33N 34°38' W 076°40'0 0.0
2016-Oct-26 16:33N 34°38' W 076°40'0 0.0
2016-Oct-26 15:33N 34°38' W 076°40'0 0.0
2016-Oct-26 14:33N 34°38' W 076°40'  
Track history (hours):
 
Tides and Currents Weather Stations Pressure Air Temp Water Temp Dewpoint Dewpoint Depression Visibility Wind Speed Wind Dir Waves Ship Positions

Aurora

Last reported at 2016-Nov-05 12:33 UTC. Time now 2016-Dec-03 02:27 UTC.
Position N 34°27' W 076°38'.
Warning: this ship's position is 27 days out of date.

Length 170 m; draft 6.7 m.

Type: Tanker. MMSI: 538001356.

Date/timePositionNaut miles runAvg speedWind from/ knotsBaromVisibWave heightAir tempDewpointWater temp
2016-Nov-05 12:33N 34°27' W 076°38'9 9.1
2016-Nov-05 11:34N 34°36' W 076°40'8 7.7
2016-Nov-05 10:33N 34°43' W 076°42'0 0.0
2016-Nov-05 09:32N 34°43' W 076°42'0 0.0
2016-Nov-05 08:32N 34°43' W 076°42'0 0.0
2016-Nov-05 07:32N 34°43' W 076°42'0 0.0
2016-Nov-05 04:29N 34°43' W 076°42'0 0.0
2016-Nov-05 02:32N 34°43' W 076°42'0 0.0
2016-Nov-05 01:32N 34°43' W 076°42'0 0.0
2016-Nov-04 23:32N 34°43' W 076°42'0 0.0
2016-Nov-04 22:32N 34°43' W 076°42'0 0.0
2016-Nov-04 21:32N 34°43' W 076°42'0 0.0
2016-Nov-04 20:32N 34°43' W 076°42'0 0.0
2016-Nov-04 18:33N 34°43' W 076°42'2 1.2
2016-Nov-04 16:34N 34°41' W 076°40'4 1.8
2016-Nov-04 14:31N 34°38' W 076°40'  
2016-Oct-28 23:31N 34°38' W 076°40'0 0.0
2016-Oct-28 21:31N 34°38' W 076°40'0 0.0
2016-Oct-28 19:33N 34°38' W 076°40'0 0.1
2016-Oct-28 16:32N 34°38' W 076°40'0 0.0
2016-Oct-28 15:32N 34°38' W 076°40'0 0.0
2016-Oct-28 14:32N 34°38' W 076°40'0 0.0
2016-Oct-28 09:33N 34°38' W 076°40'0 0.0
2016-Oct-28 08:32N 34°38' W 076°40'0 0.0
2016-Oct-28 07:32N 34°38' W 076°40'0 0.0
2016-Oct-28 00:32N 34°38' W 076°40'0 0.0
2016-Oct-27 23:32N 34°38' W 076°40'0 0.0
2016-Oct-27 21:33N 34°38' W 076°40'0 0.0
2016-Oct-27 11:32N 34°38' W 076°40'0 0.0
2016-Oct-27 09:33N 34°38' W 076°40'0 0.0
2016-Oct-27 04:32N 34°38' W 076°40'0 0.0
2016-Oct-27 03:32N 34°38' W 076°40'0 0.0
2016-Oct-27 00:33N 34°38' W 076°40'0 0.0
2016-Oct-26 21:33N 34°38' W 076°40'0 0.0
2016-Oct-26 16:33N 34°38' W 076°40'0 0.0
2016-Oct-26 15:33N 34°38' W 076°40'0 0.0
2016-Oct-26 14:33N 34°38' W 076°40'  

Dump ship's entire track history